Time;durP1;ratioP1;P1;durP2;ratioP2;P2;SDS_P1;SDS_P2;PMS_P1;PMS_P2;Temp;Humidity;BMP_temperature;BMP_pressure;BME280_temperature;BME280_humidity;BME280_pressure;Samples;Min_cycle;Max_cycle;Signal;HPM_P1;HPM_P2
2022/06/05 00:00:32;;;;;;;21.27;12.10;;;;;;;;;;5049441;28;20097;-64
2022/06/05 00:02:58;;;;;;;;;;;;;;;;;;5051150;28;20174;-64
2022/06/05 00:05:43;;;;;;;24.05;12.43;;;;;;;;;;5050552;28;20044;-64
2022/06/05 00:08:09;;;;;;;23.15;13.18;;;;;;;;;;5050154;28;20588;-64
2022/06/05 00:10:39;;;;;;;22.35;12.40;;;;;;;;;;5050669;28;20151;-64
2022/06/05 00:13:20;;;;;;;23.70;13.10;;;;;;;;;;5050072;28;20098;-64
2022/06/05 00:15:46;;;;;;;23.60;12.80;;;;;;;;;;5050678;28;20118;-64
2022/06/05 00:18:12;;;;;;;23.15;12.65;;;;;;;;;;5050170;28;20049;-64
2022/06/05 00:20:41;;;;;;;25.58;13.45;;;;;;;;;;5050160;28;20519;-64
2022/06/05 00:23:07;;;;;;;24.83;13.63;;;;;;;;;;5049757;28;20091;-64
2022/06/05 00:25:49;;;;;;;27.67;14.00;;;;;;;;;;5050201;28;20110;-64
2022/06/05 00:28:22;;;;;;;25.02;13.90;;;;;;;;;;5050141;28;20087;-64
2022/06/05 00:30:56;;;;;;;25.45;13.80;;;;;;;;;;5050067;28;20049;-65
2022/06/05 00:33:42;;;;;;;26.85;13.27;;;;;;;;;;5050077;28;20056;-65
2022/06/05 00:36:24;;;;;;;24.90;12.65;;;;;;;;;;5048180;28;20049;-64
2022/06/05 00:39:09;;;;;;;26.67;14.48;;;;;;;;;;5050089;28;20045;-64
2022/06/05 00:41:45;;;;;;;22.50;14.32;;;;;;;;;;5048637;28;20100;-64
2022/06/05 00:44:14;;;;;;;27.23;14.20;;;;;;;;;;5048398;28;20055;-65
2022/06/05 00:46:42;;;;;;;27.63;14.93;;;;;;;;;;5049756;28;20089;-65
2022/06/05 00:49:10;;;;;;;26.05;14.77;;;;;;;;;;5049263;28;20061;-64
2022/06/05 00:51:36;;;;;;;23.13;14.23;;;;;;;;;;5049713;28;20141;-65
2022/06/05 00:54:03;;;;;;;24.80;14.30;;;;;;;;;;5049987;28;20045;-64
2022/06/05 00:56:29;;;;;;;27.92;14.63;;;;;;;;;;5049702;28;20059;-64
2022/06/05 00:58:56;;;;;;;27.85;14.40;;;;;;;;;;5050005;28;20084;-64
2022/06/05 01:01:23;;;;;;;25.55;13.38;;;;;;;;;;5049916;28;20045;-64
2022/06/05 01:03:50;;;;;;;25.05;13.88;;;;;;;;;;5049816;28;20049;-64
2022/06/05 01:06:16;;;;;;;25.98;13.20;;;;;;;;;;5049612;28;20080;-64
2022/06/05 01:08:42;;;;;;;21.63;12.85;;;;;;;;;;5048234;28;20135;-64
2022/06/05 01:11:08;;;;;;;23.25;13.32;;;;;;;;;;5049466;28;20492;-64
2022/06/05 01:13:34;;;;;;;;;;;;;;;;;;5050330;28;20118;-64
2022/06/05 01:16:19;;;;;;;26.35;13.95;;;;;;;;;;5049634;28;20023;-64
2022/06/05 01:19:12;;;;;;;25.85;14.45;;;;;;;;;;5048369;28;20049;-64
2022/06/05 01:21:44;;;;;;;25.20;13.80;;;;;;;;;;5025089;28;20103;-64
2022/06/05 01:24:29;;;;;;;38.65;30.55;;;;;;;;;;5049880;28;20045;-64
2022/06/05 01:27:04;;;;;;;21.38;19.98;;;;;;;;;;5048127;28;20160;-65
2022/06/05 01:29:45;;;;;;;26.15;12.90;;;;;;;;;;5049406;28;20045;-64
2022/06/05 01:32:34;;;;;;;40.10;37.97;;;;;;;;;;5049199;28;20052;-64
2022/06/05 01:35:02;;;;;;;15.43;14.27;;;;;;;;;;5048596;28;20052;-64
2022/06/05 01:37:32;;;;;;;62.72;59.63;;;;;;;;;;5048788;28;20040;-64
2022/06/05 01:40:03;;;;;;;56.58;53.78;;;;;;;;;;5048946;28;20404;-65
2022/06/05 01:42:31;;;;;;;59.72;56.78;;;;;;;;;;5049305;28;20149;-64
2022/06/05 01:45:04;;;;;;;124.93;118.50;;;;;;;;;;5049623;28;20431;-65
2022/06/05 01:47:33;;;;;;;27.55;13.50;;;;;;;;;;5049506;28;20164;-64
2022/06/05 01:50:17;;;;;;;28.02;13.65;;;;;;;;;;5049367;28;20140;-65
2022/06/05 01:53:06;;;;;;;27.05;14.88;;;;;;;;;;5047740;28;20473;-64
2022/06/05 01:55:42;;;;;;;27.30;14.25;;;;;;;;;;5043599;28;20408;-64
2022/06/05 01:58:11;;;;;;;25.90;13.68;;;;;;;;;;5049561;28;20111;-64
2022/06/05 02:00:37;;;;;;;26.45;13.68;;;;;;;;;;5049245;28;20143;-64
2022/06/05 02:03:03;;;;;;;23.98;14.48;;;;;;;;;;5049664;28;20056;-64
2022/06/05 02:05:33;;;;;;;26.55;13.55;;;;;;;;;;5049469;28;20136;-64
2022/06/05 02:08:00;;;;;;;28.88;14.50;;;;;;;;;;5049197;28;20053;-65
2022/06/05 02:10:33;;;;;;;27.30;14.18;;;;;;;;;;5049313;28;20049;-65
2022/06/05 02:13:00;;;;;;;27.90;13.93;;;;;;;;;;5048975;28;20476;-65
2022/06/05 02:15:27;;;;;;;27.67;14.10;;;;;;;;;;5049268;28;20089;-64
2022/06/05 02:17:53;;;;;;;24.10;14.00;;;;;;;;;;5049411;28;20045;-64
2022/06/05 02:20:19;;;;;;;26.52;14.70;;;;;;;;;;5049354;28;20128;-64
2022/06/05 02:22:47;;;;;;;27.35;14.05;;;;;;;;;;5049288;28;20093;-65
2022/06/05 02:25:14;;;;;;;28.77;14.32;;;;;;;;;;5049554;28;20093;-64
2022/06/05 02:27:40;;;;;;;27.48;13.60;;;;;;;;;;5049078;28;20133;-64
2022/06/05 02:30:08;;;;;;;29.90;13.90;;;;;;;;;;5049320;28;20060;-64
2022/06/05 02:32:34;;;;;;;29.17;13.57;;;;;;;;;;5047863;28;20405;-64
2022/06/05 02:35:00;;;;;;;29.20;14.68;;;;;;;;;;5049316;28;20072;-65
2022/06/05 02:37:33;;;;;;;23.77;12.93;;;;;;;;;;5049334;28;20159;-66
2022/06/05 02:40:02;;;;;;;26.77;13.77;;;;;;;;;;5049629;28;20056;-65
2022/06/05 02:42:30;;;;;;;29.88;14.77;;;;;;;;;;5048723;28;20045;-65
2022/06/05 02:45:10;;;;;;;28.02;14.55;;;;;;;;;;5048950;28;20454;-65
2022/06/05 02:47:40;;;;;;;97.05;86.82;;;;;;;;;;5052115;28;20385;-64
2022/06/05 02:50:10;;;;;;;30.25;14.55;;;;;;;;;;5052683;28;20128;-65
2022/06/05 02:52:36;;;;;;;27.63;14.50;;;;;;;;;;5052685;28;20053;-64
2022/06/05 02:55:04;;;;;;;;;;;;;;;;;;5052840;28;20346;-65
2022/06/05 02:57:30;;;;;;;28.75;15.15;;;;;;;;;;5052452;28;20301;-65
2022/06/05 02:59:56;;;;;;;26.25;14.50;;;;;;;;;;5051990;28;20151;-64
2022/06/05 03:05:09;;;;;;;30.77;15.65;;;;;;;;;;5051730;28;20086;-64
2022/06/05 03:07:35;;;;;;;28.13;14.98;;;;;;;;;;5051118;28;20040;-65
2022/06/05 03:10:01;;;;;;;30.60;14.60;;;;;;;;;;5051172;28;20055;-65
2022/06/05 03:12:27;;;;;;;26.02;10.60;;;;;;;;;;5049587;28;20132;-64
2022/06/05 03:15:01;;;;;;;34.45;31.52;;;;;;;;;;5050995;28;20152;-65
2022/06/05 03:17:27;;;;;;;18.60;17.30;;;;;;;;;;5050996;28;20068;-64
2022/06/05 03:19:53;;;;;;;13.98;9.77;;;;;;;;;;5050588;28;20044;-64
2022/06/05 03:22:19;;;;;;;18.48;10.85;;;;;;;;;;5050565;28;20460;-65
2022/06/05 03:24:45;;;;;;;21.10;13.55;;;;;;;;;;5049184;28;20136;-65
2022/06/05 03:27:11;;;;;;;32.08;13.45;;;;;;;;;;5050582;28;20041;-64
2022/06/05 03:29:39;;;;;;;27.30;14.60;;;;;;;;;;5050712;28;20115;-65
2022/06/05 03:32:05;;;;;;;24.90;13.88;;;;;;;;;;5050435;28;20155;-65
2022/06/05 03:34:31;;;;;;;25.45;13.48;;;;;;;;;;5050494;28;20119;-64
2022/06/05 03:36:57;;;;;;;25.73;13.48;;;;;;;;;;5049055;28;20507;-66
2022/06/05 03:39:23;;;;;;;30.13;14.93;;;;;;;;;;5050778;28;20123;-65
2022/06/05 03:47:01;;;;;;;29.45;13.63;;;;;;;;;;5250754;22;20073;-65
2022/06/05 03:49:31;;;;;;;25.42;13.07;;;;;;;;;;5007839;28;20144;-65
2022/06/05 03:51:57;;;;;;;31.08;14.10;;;;;;;;;;5007029;28;20046;-66
2022/06/05 03:54:23;;;;;;;28.90;14.15;;;;;;;;;;5005774;28;20405;-66
2022/06/05 03:56:49;;;;;;;31.17;13.93;;;;;;;;;;5004275;28;20062;-65
2022/06/05 03:59:16;;;;;;;26.10;13.60;;;;;;;;;;5008920;28;20406;-65
2022/06/05 04:01:42;;;;;;;27.55;13.75;;;;;;;;;;5005653;28;20104;-65
2022/06/05 04:04:08;;;;;;;27.42;14.10;;;;;;;;;;5009218;28;20092;-64
2022/06/05 04:06:34;;;;;;;32.03;14.13;;;;;;;;;;5007109;28;20048;-65
2022/06/05 04:09:03;;;;;;;31.85;15.38;;;;;;;;;;5009296;28;20064;-64
2022/06/05 04:11:30;;;;;;;29.38;14.88;;;;;;;;;;5008836;28;20127;-64
2022/06/05 04:13:56;;;;;;;30.30;14.32;;;;;;;;;;5008120;28;20061;-64
2022/06/05 04:16:24;;;;;;;31.05;13.80;;;;;;;;;;5004484;28;20137;-65
2022/06/05 04:18:51;;;;;;;26.45;14.18;;;;;;;;;;5007701;28;20129;-65
2022/06/05 04:21:18;;;;;;;27.83;14.00;;;;;;;;;;5009173;28;20092;-64
2022/06/05 04:23:44;;;;;;;26.45;13.55;;;;;;;;;;5008749;28;20052;-64
2022/06/05 04:26:12;;;;;;;30.38;14.27;;;;;;;;;;5005515;28;20232;-64
2022/06/05 04:28:38;;;;;;;26.33;13.98;;;;;;;;;;5008384;28;20046;-64
2022/06/05 04:31:05;;;;;;;30.35;14.15;;;;;;;;;;5008719;28;20050;-64
2022/06/05 04:33:32;;;;;;;;;;;;;;;;;;5007901;28;20125;-65
2022/06/05 04:35:58;;;;;;;26.70;14.55;;;;;;;;;;5005051;28;19925;-64
2022/06/05 04:38:24;;;;;;;28.40;13.43;;;;;;;;;;5003177;28;20412;-64
2022/06/05 04:40:50;;;;;;;25.60;14.05;;;;;;;;;;5007159;28;20346;-65
2022/06/05 04:43:16;;;;;;;30.85;14.80;;;;;;;;;;5008677;28;20463;-64
2022/06/05 04:45:43;;;;;;;27.70;14.48;;;;;;;;;;5005880;28;20232;-65
2022/06/05 04:48:10;;;;;;;30.27;15.43;;;;;;;;;;5006526;28;20117;-65
2022/06/05 04:50:37;;;;;;;30.83;14.75;;;;;;;;;;5005250;28;20050;-65
2022/06/05 04:53:03;;;;;;;32.20;15.20;;;;;;;;;;5008223;28;20108;-65
2022/06/05 04:55:29;;;;;;;24.70;14.27;;;;;;;;;;5004645;28;20259;-64
2022/06/05 04:57:55;;;;;;;29.92;14.63;;;;;;;;;;5002545;28;20158;-65
2022/06/05 05:00:23;;;;;;;28.48;13.60;;;;;;;;;;5002137;28;20046;-65
2022/06/05 05:02:49;;;;;;;33.03;15.07;;;;;;;;;;5005905;28;20085;-64
2022/06/05 05:05:15;;;;;;;;;;;;;;;;;;5005369;28;20141;-64
2022/06/05 05:07:41;;;;;;;29.17;15.15;;;;;;;;;;5000804;28;20004;-64
2022/06/05 05:10:08;;;;;;;27.23;14.70;;;;;;;;;;5006033;28;20104;-65
2022/06/05 05:12:34;;;;;;;27.45;14.27;;;;;;;;;;5008293;28;20169;-66
2022/06/05 05:15:00;;;;;;;25.17;13.95;;;;;;;;;;5006297;28;20125;-65
2022/06/05 05:17:26;;;;;;;;;;;;;;;;;;5005617;28;20136;-65
2022/06/05 05:19:52;;;;;;;28.52;14.50;;;;;;;;;;5005489;28;20345;-65
2022/06/05 05:22:18;;;;;;;24.95;14.70;;;;;;;;;;5003526;28;20089;-66
2022/06/05 05:24:45;;;;;;;25.90;14.63;;;;;;;;;;4998182;28;20059;-65
2022/06/05 05:27:11;;;;;;;26.23;14.25;;;;;;;;;;5002352;28;20072;-65
2022/06/05 05:29:39;;;;;;;26.85;14.43;;;;;;;;;;5004742;28;20053;-65
2022/06/05 05:32:06;;;;;;;27.45;14.48;;;;;;;;;;5005487;28;20479;-65
2022/06/05 05:34:31;;;;;;;;;;;;;;;;;;5004753;28;20465;-67
2022/06/05 05:36:57;;;;;;;33.33;15.07;;;;;;;;;;5005763;28;19921;-65
2022/06/05 05:42:09;;;;;;;27.20;14.57;;;;;;;;;;5002478;28;20151;-65
2022/06/05 05:44:40;;;;;;;27.05;14.50;;;;;;;;;;5005598;28;20426;-65
2022/06/05 05:47:08;;;;;;;28.10;14.57;;;;;;;;;;5017178;28;20153;-66
2022/06/05 05:49:34;;;;;;;25.90;14.68;;;;;;;;;;5000046;28;20054;-66
2022/06/05 05:52:00;;;;;;;27.48;14.55;;;;;;;;;;5002450;28;20054;-66
2022/06/05 05:54:26;;;;;;;23.17;13.82;;;;;;;;;;4992138;28;20146;-66
2022/06/05 05:56:52;;;;;;;80.85;45.72;;;;;;;;;;4998607;28;20033;-66
2022/06/05 05:59:19;;;;;;;20.20;9.70;;;;;;;;;;5001272;28;20037;-66
2022/06/05 06:01:46;;;;;;;29.30;16.85;;;;;;;;;;5004252;28;20061;-65
2022/06/05 06:04:12;;;;;;;26.75;16.63;;;;;;;;;;5005227;28;20054;-66
2022/06/05 06:06:41;;;;;;;29.30;16.13;;;;;;;;;;5001351;28;20070;-66
2022/06/05 06:09:07;;;;;;;25.75;15.80;;;;;;;;;;4998610;28;20049;-65
2022/06/05 06:11:33;;;;;;;25.38;15.88;;;;;;;;;;5000772;28;20037;-66
2022/06/05 06:13:59;;;;;;;27.67;16.45;;;;;;;;;;5000627;28;20168;-66
2022/06/05 06:16:28;;;;;;;25.27;15.27;;;;;;;;;;4998466;28;21781;-65
2022/06/05 06:18:55;;;;;;;29.92;16.45;;;;;;;;;;4999268;28;20588;-65
2022/06/05 06:21:21;;;;;;;25.45;15.45;;;;;;;;;;5001300;28;20054;-65
2022/06/05 06:23:47;;;;;;;25.85;13.60;;;;;;;;;;5003061;28;20486;-65
2022/06/05 06:26:17;;;;;;;27.45;13.93;;;;;;;;;;5009921;28;20212;-65
2022/06/05 06:28:43;;;;;;;;;;;;;;;;;;5005892;28;20339;-65
2022/06/05 06:31:10;;;;;;;25.23;15.13;;;;;;;;;;5003544;28;19975;-65
2022/06/05 06:33:36;;;;;;;24.85;13.90;;;;;;;;;;5002861;28;20050;-65
2022/06/05 06:36:08;;;;;;;25.23;14.57;;;;;;;;;;5010943;28;20046;-66
2022/06/05 06:38:34;;;;;;;28.15;14.85;;;;;;;;;;5013095;28;20378;-65
2022/06/05 06:41:02;;;;;;;;;;;;;;;;;;5015955;28;20472;-65
2022/06/05 06:43:28;;;;;;;23.38;13.43;;;;;;;;;;5012718;28;19970;-67
2022/06/05 06:45:55;;;;;;;25.40;15.00;;;;;;;;;;5009923;28;20061;-65
2022/06/05 06:48:21;;;;;;;28.00;15.00;;;;;;;;;;5015272;28;20096;-65
2022/06/05 06:50:47;;;;;;;;;;;;;;;;;;5016318;28;20126;-65
2022/06/05 06:53:13;;;;;;;24.88;14.07;;;;;;;;;;5008568;28;19929;-65
2022/06/05 06:55:39;;;;;;;;;;;;;;;;;;5008470;28;20077;-67
2022/06/05 06:58:05;;;;;;;23.85;15.05;;;;;;;;;;5009646;28;20051;-65
2022/06/05 07:00:31;;;;;;;26.58;15.55;;;;;;;;;;5006734;28;20096;-65
2022/06/05 07:02:58;;;;;;;21.90;13.70;;;;;;;;;;5010325;28;20050;-64
2022/06/05 07:05:24;;;;;;;24.42;14.18;;;;;;;;;;5007338;28;20508;-65
2022/06/05 07:07:51;;;;;;;23.65;14.23;;;;;;;;;;5009078;28;20050;-65
2022/06/05 07:10:17;;;;;;;25.17;14.82;;;;;;;;;;5006337;28;20045;-66
2022/06/05 07:12:43;;;;;;;22.55;13.55;;;;;;;;;;4998547;28;20057;-64
2022/06/05 07:15:10;;;;;;;26.58;14.65;;;;;;;;;;5007375;28;20105;-65
2022/06/05 07:17:36;;;;;;;;;;;;;;;;;;5007951;28;20041;-65
2022/06/05 07:20:02;;;;;;;24.00;14.18;;;;;;;;;;5006840;28;20132;-65
2022/06/05 07:22:28;;;;;;;24.95;13.93;;;;;;;;;;5006102;28;20068;-65
2022/06/05 07:24:54;;;;;;;22.98;13.15;;;;;;;;;;5007861;28;20131;-65
2022/06/05 07:27:20;;;;;;;23.05;13.80;;;;;;;;;;5008589;28;20099;-65
2022/06/05 07:29:46;;;;;;;22.38;12.75;;;;;;;;;;5007911;28;20088;-66
2022/06/05 07:32:13;;;;;;;23.13;13.05;;;;;;;;;;5006670;28;20053;-65
2022/06/05 07:34:40;;;;;;;24.30;14.52;;;;;;;;;;5006032;28;20376;-65
2022/06/05 07:37:06;;;;;;;22.05;13.25;;;;;;;;;;5006005;28;20500;-65
2022/06/05 07:39:32;;;;;;;22.48;13.68;;;;;;;;;;5008613;28;20053;-65
2022/06/05 07:41:58;;;;;;;27.80;14.60;;;;;;;;;;5008620;28;20117;-66
2022/06/05 07:44:25;;;;;;;24.58;13.93;;;;;;;;;;5007045;28;20119;-66
2022/06/05 07:46:53;;;;;;;24.63;13.90;;;;;;;;;;5005769;28;20145;-66
2022/06/05 07:49:19;;;;;;;25.23;13.93;;;;;;;;;;5009217;28;20054;-65
2022/06/05 07:54:31;;;;;;;91.38;20.25;;;;;;;;;;5006625;28;20377;-68
2022/06/05 07:56:57;;;;;;;23.17;12.98;;;;;;;;;;5014050;28;20128;-68
2022/06/05 07:59:23;;;;;;;22.77;12.18;;;;;;;;;;5013866;28;20046;-68
2022/06/05 08:01:51;;;;;;;22.25;12.90;;;;;;;;;;5013833;28;20046;-66
2022/06/05 08:04:17;;;;;;;22.40;11.98;;;;;;;;;;5013746;28;20080;-68
2022/06/05 08:06:43;;;;;;;;;;;;;;;;;;5012986;28;20486;-68
2022/06/05 08:09:09;;;;;;;21.40;11.20;;;;;;;;;;5014055;28;19921;-69
2022/06/05 08:11:36;;;;;;;19.58;11.57;;;;;;;;;;5013183;28;20042;-68
2022/06/05 08:14:02;;;;;;;21.67;11.15;;;;;;;;;;5012894;28;20068;-68
2022/06/05 08:16:28;;;;;;;20.33;10.32;;;;;;;;;;5012176;28;20046;-68
2022/06/05 08:18:55;;;;;;;;;;;;;;;;;;5013184;28;20050;-67
2022/06/05 08:21:21;;;;;;;19.63;10.68;;;;;;;;;;5013531;28;20264;-67
2022/06/05 08:23:48;;;;;;;21.58;11.38;;;;;;;;;;5013016;28;20050;-68
2022/06/05 08:26:14;;;;;;;21.25;11.02;;;;;;;;;;5013375;28;20065;-67
2022/06/05 08:28:40;;;;;;;16.58;10.50;;;;;;;;;;5013385;28;20100;-68
2022/06/05 08:31:07;;;;;;;19.40;10.35;;;;;;;;;;5011382;28;20046;-67
2022/06/05 08:33:33;;;;;;;;;;;;;;;;;;5013779;28;20085;-66
2022/06/05 08:35:59;;;;;;;20.73;11.00;;;;;;;;;;5013152;28;19922;-68
2022/06/05 08:41:28;;;;;;;20.00;11.32;;;;;;;;;;5013347;28;20140;-75
2022/06/05 08:44:09;;;;;;;18.77;11.10;;;;;;;;;;5012426;28;20054;-76
2022/06/05 08:46:35;;;;;;;20.55;10.65;;;;;;;;;;5012433;28;20096;-74
2022/06/05 08:49:09;;;;;;;20.27;10.80;;;;;;;;;;5012246;28;20046;-75
2022/06/05 08:51:46;;;;;;;17.95;11.32;;;;;;;;;;5013221;28;20458;-74
2022/06/05 08:54:32;;;;;;;16.95;10.70;;;;;;;;;;5011266;28;20133;-75
2022/06/05 08:57:04;;;;;;;18.53;11.10;;;;;;;;;;5011213;28;20061;-71
2022/06/05 08:59:33;;;;;;;17.48;10.98;;;;;;;;;;5011881;28;20057;-73
2022/06/05 09:01:59;;;;;;;21.02;11.23;;;;;;;;;;5012770;28;20046;-71
2022/06/05 09:04:39;;;;;;;17.85;10.27;;;;;;;;;;4995088;28;20121;-72
2022/06/05 09:07:06;;;;;;;18.33;10.90;;;;;;;;;;5012319;28;20046;-71
2022/06/05 09:09:41;;;;;;;16.60;9.73;;;;;;;;;;5011481;28;20050;-74
2022/06/05 09:12:33;;;;;;;20.50;10.38;;;;;;;;;;5012555;28;20053;-72
2022/06/05 09:15:05;;;;;;;18.45;9.90;;;;;;;;;;5011708;28;20058;-74
2022/06/05 09:17:31;;;;;;;19.83;9.82;;;;;;;;;;5013024;28;20054;-77
2022/06/05 09:19:58;;;;;;;19.17;9.25;;;;;;;;;;5011289;28;20053;-75
2022/06/05 09:22:41;;;;;;;17.48;9.32;;;;;;;;;;5011188;28;20212;-76
2022/06/05 09:25:12;;;;;;;16.92;9.85;;;;;;;;;;5010508;28;20050;-74
2022/06/05 09:27:44;;;;;;;17.55;10.75;;;;;;;;;;5012178;28;20072;-80
2022/06/05 09:30:12;;;;;;;17.08;11.07;;;;;;;;;;5011770;28;20049;-71
2022/06/05 09:32:41;;;;;;;18.20;10.35;;;;;;;;;;5011504;28;20054;-75
2022/06/05 09:35:16;;;;;;;14.43;9.75;;;;;;;;;;5010320;28;20046;-73
2022/06/05 09:37:49;;;;;;;20.48;9.55;;;;;;;;;;5011776;28;20049;-73
2022/06/05 09:40:15;;;;;;;16.90;9.70;;;;;;;;;;5011625;28;20049;-80
2022/06/05 09:42:59;;;;;;;18.70;9.40;;;;;;;;;;5010175;28;20057;-80
2022/06/05 09:45:41;;;;;;;16.30;10.00;;;;;;;;;;5011217;28;20197;-80
2022/06/05 09:48:26;;;;;;;18.38;9.73;;;;;;;;;;5013816;28;20038;-81
2022/06/05 09:50:52;;;;;;;17.42;8.95;;;;;;;;;;5012141;28;20086;-78
2022/06/05 09:53:27;;;;;;;15.05;9.05;;;;;;;;;;5011209;28;20382;-79
2022/06/05 09:56:07;;;;;;;17.38;9.90;;;;;;;;;;5010589;28;20389;-77
2022/06/05 09:58:40;;;;;;;16.00;9.52;;;;;;;;;;5011782;28;20100;-77
2022/06/05 10:01:21;;;;;;;16.90;9.98;;;;;;;;;;5011734;28;20068;-75
2022/06/05 10:03:47;;;;;;;15.45;9.32;;;;;;;;;;5011075;28;20045;-72
2022/06/05 10:06:32;;;;;;;15.40;8.93;;;;;;;;;;5011324;28;20082;-74
2022/06/05 10:09:12;;;;;;;20.42;9.75;;;;;;;;;;5011186;28;20052;-74
2022/06/05 10:11:57;;;;;;;16.38;8.70;;;;;;;;;;5011737;28;20082;-75
2022/06/05 10:14:26;;;;;;;15.40;9.10;;;;;;;;;;5011305;28;20551;-74
2022/06/05 10:17:11;;;;;;;114.30;107.28;;;;;;;;;;5011123;28;20053;-76
2022/06/05 10:19:40;;;;;;;16.58;8.00;;;;;;;;;;5011228;28;20100;-72
2022/06/05 10:22:13;;;;;;;18.58;8.93;;;;;;;;;;5009992;28;20045;-74
2022/06/05 10:25:02;;;;;;;16.25;8.68;;;;;;;;;;5011317;28;20478;-73
2022/06/05 10:27:29;;;;;;;15.15;9.02;;;;;;;;;;5011900;28;20104;-72
2022/06/05 10:29:57;;;;;;;17.75;8.48;;;;;;;;;;5011264;28;20042;-71
2022/06/05 10:32:36;;;;;;;13.88;8.63;;;;;;;;;;5010040;28;20045;-71
2022/06/05 10:35:15;;;;;;;13.52;8.45;;;;;;;;;;5011143;28;20089;-66
2022/06/05 10:37:48;;;;;;;13.70;8.18;;;;;;;;;;5011633;28;20070;-67
2022/06/05 10:40:32;;;;;;;14.63;8.65;;;;;;;;;;5011073;28;20100;-65
2022/06/05 10:43:02;;;;;;;13.85;8.30;;;;;;;;;;5011042;28;20057;-65
2022/06/05 10:45:35;;;;;;;14.15;8.15;;;;;;;;;;5010466;28;20494;-66
2022/06/05 10:48:19;;;;;;;13.57;8.02;;;;;;;;;;5011094;28;20379;-66
2022/06/05 10:50:48;;;;;;;13.18;8.07;;;;;;;;;;5011465;28;20046;-76
2022/06/05 10:53:20;;;;;;;14.60;8.55;;;;;;;;;;5010846;28;20080;-69
2022/06/05 10:55:57;;;;;;;13.52;8.73;;;;;;;;;;5010251;28;20433;-70
2022/06/05 10:58:41;;;;;;;17.55;9.15;;;;;;;;;;5011358;28;20041;-70
2022/06/05 11:01:13;;;;;;;14.70;8.75;;;;;;;;;;5010852;28;20101;-68
2022/06/05 11:04:00;;;;;;;13.18;8.45;;;;;;;;;;5010751;28;20056;-66
2022/06/05 11:06:30;;;;;;;16.73;8.75;;;;;;;;;;5010520;28;20485;-67
2022/06/05 11:09:18;;;;;;;14.90;9.15;;;;;;;;;;5014469;28;20565;-67
2022/06/05 11:15:10;;;;;;;15.55;9.25;;;;;;;;;;5014449;28;20149;-68
2022/06/05 11:17:42;;;;;;;13.98;8.90;;;;;;;;;;5011352;28;20351;-68
2022/06/05 11:20:21;;;;;;;13.20;8.20;;;;;;;;;;5014240;28;20444;-70
2022/06/05 11:22:57;;;;;;;13.70;8.50;;;;;;;;;;5014247;28;20455;-69
2022/06/05 11:25:23;;;;;;;;;;;;;;;;;;5013808;28;20081;-74
2022/06/05 11:27:49;;;;;;;12.87;7.73;;;;;;;;;;5014107;28;20266;-67
2022/06/05 11:30:20;;;;;;;13.27;7.68;;;;;;;;;;5014041;28;20046;-67
2022/06/05 11:32:46;;;;;;;12.65;8.07;;;;;;;;;;5014426;28;20054;-72
2022/06/05 11:35:18;;;;;;;11.52;7.65;;;;;;;;;;5014102;28;20227;-68
2022/06/05 11:37:57;;;;;;;17.70;8.60;;;;;;;;;;5014369;28;20038;-71
2022/06/05 11:40:45;;;;;;;13.18;7.47;;;;;;;;;;5014378;28;20060;-69
2022/06/05 11:43:30;;;;;;;13.30;8.00;;;;;;;;;;5014704;28;20058;-68
2022/06/05 11:46:00;;;;;;;12.55;7.75;;;;;;;;;;5013944;28;20069;-71
2022/06/05 11:48:36;;;;;;;16.30;7.88;;;;;;;;;;5014320;28;20103;-70
2022/06/05 11:51:21;;;;;;;16.83;7.65;;;;;;;;;;5013924;28;20434;-69
2022/06/05 11:53:57;;;;;;;12.45;7.13;;;;;;;;;;5013440;28;20509;-69
2022/06/05 11:56:32;;;;;;;12.32;7.25;;;;;;;;;;5013583;28;20053;-69
2022/06/05 11:59:04;;;;;;;12.40;7.97;;;;;;;;;;5013536;28;20398;-70
2022/06/05 12:01:32;;;;;;;13.10;7.28;;;;;;;;;;5013549;28;20054;-69
2022/06/05 12:04:10;;;;;;;15.65;8.05;;;;;;;;;;5013614;28;20493;-67
2022/06/05 12:06:42;;;;;;;17.52;7.95;;;;;;;;;;5013746;28;20053;-72
2022/06/05 12:09:13;;;;;;;12.43;7.40;;;;;;;;;;5013862;28;20060;-69
2022/06/05 12:11:45;;;;;;;13.85;8.10;;;;;;;;;;5013359;28;20128;-69
2022/06/05 12:14:18;;;;;;;13.68;8.07;;;;;;;;;;5013695;28;20049;-69
2022/06/05 12:16:44;;;;;;;13.70;8.15;;;;;;;;;;5013310;28;20053;-69
2022/06/05 12:19:10;;;;;;;;;;;;;;;;;;5013357;28;20045;-69
2022/06/05 12:21:51;;;;;;;15.13;8.27;;;;;;;;;;5013711;28;20055;-71
2022/06/05 12:24:40;;;;;;;15.15;7.85;;;;;;;;;;5013577;28;20116;-68
2022/06/05 12:27:09;;;;;;;14.88;7.60;;;;;;;;;;5013265;28;20045;-71
2022/06/05 12:29:41;;;;;;;16.85;7.75;;;;;;;;;;5011929;28;20132;-69
2022/06/05 12:32:10;;;;;;;13.93;7.50;;;;;;;;;;5013143;28;20102;-70
2022/06/05 12:34:50;;;;;;;14.00;7.40;;;;;;;;;;5012965;28;20370;-72
2022/06/05 12:37:26;;;;;;;15.75;8.75;;;;;;;;;;5013613;28;20088;-71
2022/06/05 12:39:54;;;;;;;15.15;8.30;;;;;;;;;;5012850;28;20096;-69
2022/06/05 12:42:26;;;;;;;18.20;7.88;;;;;;;;;;5012839;28;20054;-69
2022/06/05 12:44:57;;;;;;;15.32;7.70;;;;;;;;;;5012934;28;20046;-71
2022/06/05 12:47:29;;;;;;;16.23;8.40;;;;;;;;;;5012074;28;20054;-72
2022/06/05 12:49:55;;;;;;;12.93;7.82;;;;;;;;;;5012699;28;20050;-69
2022/06/05 12:52:21;;;;;;;;;;;;;;;;;;5012895;28;20049;-69
2022/06/05 12:54:53;;;;;;;14.48;7.57;;;;;;;;;;5012604;28;19921;-70
2022/06/05 12:57:24;;;;;;;15.38;7.93;;;;;;;;;;5011992;28;20060;-70
2022/06/05 12:59:57;;;;;;;12.75;7.63;;;;;;;;;;5012252;28;20049;-68
2022/06/05 13:02:29;;;;;;;14.10;7.90;;;;;;;;;;5011269;28;20054;-71
2022/06/05 13:05:01;;;;;;;12.57;7.85;;;;;;;;;;5012251;28;20421;-69
2022/06/05 13:07:32;;;;;;;15.35;7.43;;;;;;;;;;5012283;28;20045;-68
2022/06/05 13:10:08;;;;;;;13.80;7.97;;;;;;;;;;5013302;28;20092;-70
2022/06/05 13:12:40;;;;;;;16.35;7.78;;;;;;;;;;5012145;28;20457;-69
2022/06/05 13:15:16;;;;;;;13.18;7.72;;;;;;;;;;5012677;28;20053;-68
2022/06/05 13:17:48;;;;;;;14.35;7.45;;;;;;;;;;5012273;28;20465;-70
2022/06/05 13:20:33;;;;;;;13.73;8.10;;;;;;;;;;5012171;28;20050;-71
2022/06/05 13:23:02;;;;;;;15.52;7.65;;;;;;;;;;5012089;28;20166;-70
2022/06/05 13:26:04;;;;;;;12.80;7.40;;;;;;;;;;5012387;28;20116;-67
2022/06/05 13:28:40;;;;;;;13.32;7.53;;;;;;;;;;4990071;28;20046;-68
2022/06/05 13:31:26;;;;;;;12.35;7.47;;;;;;;;;;5008084;28;20521;-69
2022/06/05 13:33:56;;;;;;;12.40;7.13;;;;;;;;;;5011004;28;20562;-69
2022/06/05 13:36:29;;;;;;;14.95;7.57;;;;;;;;;;5011773;28;20058;-70
2022/06/05 13:39:13;;;;;;;13.85;6.88;;;;;;;;;;5011764;28;20081;-69
2022/06/05 13:41:45;;;;;;;13.70;7.65;;;;;;;;;;5011769;28;20114;-71
2022/06/05 13:44:22;;;;;;;12.35;7.20;;;;;;;;;;5011867;28;20129;-68
2022/06/05 13:47:00;;;;;;;14.13;7.70;;;;;;;;;;5011764;28;20096;-68
2022/06/05 13:49:44;;;;;;;12.90;7.60;;;;;;;;;;5011866;28;20056;-69
2022/06/05 13:52:11;;;;;;;12.95;7.35;;;;;;;;;;5012275;28;20054;-67
2022/06/05 13:54:57;;;;;;;11.88;6.70;;;;;;;;;;5011659;28;20053;-68
2022/06/05 13:57:26;;;;;;;13.02;6.93;;;;;;;;;;5007868;28;20077;-68
2022/06/05 14:00:05;;;;;;;13.32;7.47;;;;;;;;;;5011478;28;20058;-67
2022/06/05 14:02:31;;;;;;;15.63;7.07;;;;;;;;;;5010647;28;20126;-69
2022/06/05 14:04:57;;;;;;;;;;;;;;;;;;5011732;28;20046;-68
2022/06/05 14:07:26;;;;;;;13.10;7.57;;;;;;;;;;5011601;28;20264;-68
2022/06/05 14:10:04;;;;;;;13.57;6.82;;;;;;;;;;5009789;28;20097;-67
2022/06/05 14:12:31;;;;;;;13.55;6.63;;;;;;;;;;5011392;28;20420;-70
2022/06/05 14:14:58;;;;;;;13.35;7.13;;;;;;;;;;5011310;28;20041;-68
2022/06/05 14:17:29;;;;;;;13.73;6.97;;;;;;;;;;5011240;28;20081;-70
2022/06/05 14:20:00;;;;;;;13.65;7.32;;;;;;;;;;5011185;28;20223;-71
2022/06/05 14:22:32;;;;;;;11.95;6.55;;;;;;;;;;5011092;28;20053;-73
2022/06/05 14:24:58;;;;;;;11.23;6.95;;;;;;;;;;5009799;28;20504;-72
2022/06/05 14:27:29;;;;;;;12.48;7.05;;;;;;;;;;5011490;28;20042;-67
2022/06/05 14:29:56;;;;;;;11.55;6.90;;;;;;;;;;5009473;28;20068;-64
2022/06/05 14:32:25;;;;;;;12.48;6.60;;;;;;;;;;5009813;28;20081;-67
2022/06/05 14:35:09;;;;;;;12.68;6.70;;;;;;;;;;5011258;28;20078;-65
2022/06/05 14:37:38;;;;;;;15.32;7.45;;;;;;;;;;5011295;28;20053;-65
2022/06/05 14:40:05;;;;;;;16.52;7.28;;;;;;;;;;5009818;28;20061;-65
2022/06/05 14:42:36;;;;;;;14.32;6.80;;;;;;;;;;5012802;28;20374;-65
2022/06/05 14:45:07;;;;;;;12.88;6.53;;;;;;;;;;5014925;28;20054;-65
2022/06/05 14:47:40;;;;;;;12.35;6.45;;;;;;;;;;5015750;28;20354;-67
2022/06/05 14:50:28;;;;;;;11.38;5.88;;;;;;;;;;5015197;28;20050;-65
2022/06/05 14:53:02;;;;;;;10.68;5.93;;;;;;;;;;5014086;28;20054;-65
2022/06/05 14:58:34;;;;;;;12.40;6.70;;;;;;;;;;5014886;28;20462;-64
2022/06/05 15:01:07;;;;;;;12.30;6.40;;;;;;;;;;5014980;28;20091;-65
2022/06/05 15:03:39;;;;;;;13.98;6.43;;;;;;;;;;5014348;28;20049;-64
2022/06/05 15:06:05;;;;;;;11.95;5.97;;;;;;;;;;5014316;28;20042;-65
2022/06/05 15:08:49;;;;;;;12.50;6.00;;;;;;;;;;5014469;28;20096;-65
2022/06/05 15:11:26;;;;;;;13.07;6.18;;;;;;;;;;5013241;28;20170;-65